createdAt,value
2022-11-29T00:00:16.953Z,3.17
2022-11-29T00:05:38.873Z,2.45
2022-11-29T00:10:40.792Z,2.58
2022-11-29T00:15:44.076Z,2.63
2022-11-29T00:20:45.955Z,3.75
2022-11-29T00:25:47.897Z,1.85
2022-11-29T00:30:51.144Z,2.67
2022-11-29T00:35:53.198Z,2.45
2022-11-29T00:40:55.207Z,3.10
2022-11-29T00:45:58.517Z,2.30
2022-11-29T00:51:00.814Z,2.58
2022-11-29T00:56:03.725Z,2.80
2022-11-29T01:01:07.102Z,3.63
2022-11-29T01:06:11.745Z,2.22
2022-11-29T01:16:20.007Z,1.52
2022-11-29T01:21:24.120Z,2.40
2022-11-29T01:26:28.035Z,2.75
2022-11-29T01:31:35.994Z,3.10
2022-11-29T01:36:37.985Z,2.78
2022-11-29T01:41:40.048Z,2.90
2022-11-29T01:46:44.894Z,2.15
2022-11-29T01:51:50.439Z,1.80
2022-11-29T01:56:53.122Z,1.88
2022-11-29T02:02:03.967Z,2.58
2022-11-29T02:07:05.967Z,1.65
2022-11-29T02:12:21.182Z,1.63
2022-11-29T02:17:33.103Z,2.45
2022-11-29T02:22:41.599Z,2.75
2022-11-29T02:28:21.620Z,1.98
2022-11-29T02:33:50.333Z,1.67
2022-11-29T02:39:07.943Z,3.22
2022-11-29T02:44:32.216Z,2.47
2022-11-29T02:49:53.598Z,2.92
2022-11-29T02:55:04.417Z,2.40
2022-11-29T03:05:18.607Z,2.97
2022-11-29T03:15:31.155Z,2.70
2022-11-29T03:20:45.114Z,2.50
2022-11-29T03:25:53.507Z,3.08
2022-11-29T03:31:01.437Z,2.35
2022-11-29T03:36:11.847Z,2.22
2022-11-29T03:41:23.403Z,2.10
2022-11-29T03:46:34.917Z,3.03
2022-11-29T03:51:49.663Z,3.45
2022-11-29T03:56:52.286Z,2.75
2022-11-29T04:02:12.803Z,5.40
2022-11-29T04:07:33.878Z,5.72
2022-11-29T04:12:58.086Z,4.28
2022-11-29T04:18:25.867Z,2.45
2022-11-29T04:23:48.514Z,2.47
2022-11-29T04:29:15.420Z,1.98
2022-11-29T04:34:34.370Z,3.70
2022-11-29T04:39:56.255Z,5.15
2022-11-29T04:45:22.928Z,2.67
2022-11-29T04:50:40.387Z,4.65
2022-11-29T04:55:51.072Z,3.17
2022-11-29T05:00:59.571Z,3.53
2022-11-29T05:06:19.716Z,2.60
2022-11-29T05:11:34.455Z,3.92
2022-11-29T05:16:48.903Z,2.88
2022-11-29T05:22:00.985Z,4.97
2022-11-29T05:27:14.150Z,2.25
2022-11-29T05:32:28.537Z,2.67
2022-11-29T05:37:43.154Z,4.75
2022-11-29T05:43:05.423Z,3.70
2022-11-29T05:48:17.599Z,5.22
2022-11-29T05:53:24.673Z,5.43
2022-11-29T05:58:46.381Z,6.32
2022-11-29T06:03:56.653Z,6.47
2022-11-29T06:09:06.247Z,5.07
2022-11-29T06:14:20.086Z,4.32
2022-11-29T06:19:37.524Z,4.97
2022-11-29T06:24:50.461Z,4.97
2022-11-29T06:30:02.327Z,5.20
2022-11-29T06:35:11.217Z,6.55
2022-11-29T06:40:15.879Z,5.97
2022-11-29T06:45:21.765Z,8.18
2022-11-29T06:50:38.293Z,7.07
2022-11-29T06:55:48.677Z,5.55
2022-11-29T07:01:00.686Z,10.70
2022-11-29T07:06:10.143Z,5.95
2022-11-29T07:11:14.204Z,5.55
2022-11-29T07:16:25.841Z,6.78
2022-11-29T07:21:44.158Z,2.05
2022-11-29T07:26:59.606Z,5.43
2022-11-29T07:32:12.836Z,4.43
2022-11-29T07:37:24.315Z,5.43
2022-11-29T07:42:37.724Z,6.00
2022-11-29T07:47:41.018Z,5.90
2022-11-29T07:52:46.210Z,8.30
2022-11-29T07:57:49.159Z,4.07
2022-11-29T08:02:52.457Z,7.28
2022-11-29T08:07:55.881Z,9.90
2022-11-29T08:12:57.882Z,12.52
2022-11-29T08:18:01.838Z,9.93
2022-11-29T08:23:03.871Z,10.63
2022-11-29T08:28:06.207Z,9.32
2022-11-29T08:33:09.465Z,7.53
2022-11-29T08:38:11.371Z,9.05
2022-11-29T08:43:13.371Z,6.53
2022-11-29T08:48:16.616Z,7.18
2022-11-29T08:53:37.288Z,3.55
2022-11-29T08:58:40.167Z,4.55
2022-11-29T09:03:59.955Z,6.85
2022-11-29T09:09:01.971Z,7.28
2022-11-29T09:14:06.362Z,6.22
2022-11-29T09:19:10.157Z,7.82
2022-11-29T09:29:15.910Z,3.67
2022-11-29T09:39:21.072Z,5.35
2022-11-29T09:44:38.348Z,4.38
2022-11-29T09:49:52.049Z,2.95
2022-11-29T09:55:04.062Z,5.10
2022-11-29T10:00:15.713Z,6.20
2022-11-29T10:05:24.115Z,4.30
2022-11-29T10:10:31.016Z,6.97
2022-11-29T10:15:38.561Z,7.32
2022-11-29T10:20:48.795Z,5.78
2022-11-29T10:25:53.724Z,10.48
2022-11-29T10:31:16.293Z,6.32
2022-11-29T10:41:26.865Z,8.25
2022-11-29T10:46:33.031Z,7.63
2022-11-29T10:51:36.740Z,7.97
2022-11-29T11:01:43.111Z,7.53
2022-11-29T11:06:51.424Z,7.35
2022-11-29T11:11:55.654Z,7.45
2022-11-29T11:17:15.413Z,9.25
2022-11-29T11:22:23.148Z,5.55
2022-11-29T11:27:34.026Z,3.38
2022-11-29T11:32:36.952Z,6.28
2022-11-29T11:37:40.255Z,5.47
2022-11-29T11:42:44.154Z,5.95
2022-11-29T11:47:49.189Z,16.20
2022-11-29T11:52:55.698Z,13.02
2022-11-29T11:58:03.321Z,17.23
2022-11-29T12:03:24.897Z,19.42
2022-11-29T12:08:29.667Z,20.52
2022-11-29T12:13:35.711Z,19.65
2022-11-29T12:18:44.113Z,20.30
2022-11-29T12:23:53.158Z,16.92
2022-11-29T12:28:55.176Z,16.77
2022-11-29T12:34:10.013Z,19.52
2022-11-29T12:39:26.690Z,23.52
2022-11-29T12:44:39.500Z,24.98
2022-11-29T12:50:04.790Z,21.92
2022-11-29T12:55:19.745Z,18.05
2022-11-29T13:00:22.697Z,22.10
2022-11-29T13:05:43.406Z,25.63
2022-11-29T13:10:58.048Z,21.95
2022-11-29T13:16:05.845Z,27.77
2022-11-29T13:21:13.635Z,24.23
2022-11-29T13:26:18.636Z,23.33
2022-11-29T13:31:22.627Z,22.40
2022-11-29T13:36:34.457Z,23.60
2022-11-29T13:41:45.699Z,26.58
2022-11-29T13:46:57.548Z,24.20
2022-11-29T13:52:05.219Z,26.67
2022-11-29T13:57:09.961Z,24.83
2022-11-29T14:02:28.235Z,22.15
2022-11-29T14:07:30.279Z,21.33
2022-11-29T14:12:38.367Z,22.95
2022-11-29T14:17:50.449Z,24.10
2022-11-29T14:23:13.940Z,22.83
2022-11-29T14:28:41.393Z,20.73
2022-11-29T14:34:01.121Z,21.08
2022-11-29T14:39:20.343Z,62.47
2022-11-29T15:10:57.097Z,11.30
2022-11-29T15:16:14.342Z,12.15
2022-11-29T15:21:31.068Z,12.50
2022-11-29T15:26:34.795Z,11.25
2022-11-29T15:31:37.295Z,9.15
2022-11-29T15:36:43.174Z,8.45
2022-11-29T15:41:46.474Z,11.75
2022-11-29T15:46:48.546Z,11.10
2022-11-29T15:51:55.892Z,12.32
2022-11-29T15:57:02.478Z,8.48
2022-11-29T16:02:15.702Z,8.80
2022-11-29T16:07:20.391Z,11.05
2022-11-29T16:12:24.842Z,7.68
2022-11-29T16:17:28.863Z,37.42
2022-11-29T16:22:32.141Z,34.65
2022-11-29T16:27:36.356Z,15.27
2022-11-29T16:37:46.195Z,8.68
2022-11-29T16:43:06.439Z,10.00
2022-11-29T16:48:28.728Z,43.83
2022-11-29T16:53:35.823Z,44.10
2022-11-29T16:59:25.064Z,48.17
2022-11-29T17:04:01.972Z,54.42
2022-11-29T17:09:04.638Z,54.58
2022-11-29T17:14:08.219Z,56.30
2022-11-29T17:19:12.601Z,58.50
2022-11-29T17:24:17.276Z,62.50
2022-11-29T17:29:20.653Z,49.85
2022-11-29T17:34:22.776Z,54.33
2022-11-29T17:39:24.725Z,51.58
2022-11-29T17:44:27.985Z,53.45
2022-11-29T17:49:30.100Z,56.95
2022-11-29T17:54:35.993Z,52.38
2022-11-29T17:59:39.289Z,52.88
2022-11-29T18:04:42.621Z,41.55
2022-11-29T18:09:45.910Z,37.17
2022-11-29T18:14:50.843Z,34.60
2022-11-29T18:19:52.806Z,43.97
2022-11-29T18:25:05.387Z,30.05
2022-11-29T18:30:18.269Z,30.10
2022-11-29T18:35:20.210Z,39.00
2022-11-29T18:40:22.924Z,50.28
2022-11-29T18:45:26.356Z,50.35
2022-11-29T18:50:28.276Z,41.83
2022-11-29T18:55:30.207Z,43.80
2022-11-29T19:00:33.798Z,38.10
2022-11-29T19:05:35.761Z,49.35
2022-11-29T19:10:38.484Z,51.30
2022-11-29T19:15:41.869Z,44.75
2022-11-29T19:20:43.854Z,47.35
2022-11-29T19:25:45.931Z,33.35
2022-11-29T19:30:54.995Z,31.13
2022-11-29T19:35:57.027Z,41.17
2022-11-29T19:40:59.082Z,44.20
2022-11-29T19:46:08.408Z,47.47
2022-11-29T19:51:11.870Z,52.58
2022-11-29T19:56:15.633Z,49.10
2022-11-29T20:01:22.781Z,51.67
2022-11-29T20:06:26.815Z,49.00
2022-11-29T20:11:29.212Z,54.15
2022-11-29T20:16:32.948Z,51.72
2022-11-29T20:21:35.190Z,48.92
2022-11-29T20:26:39.103Z,39.00
2022-11-29T20:31:50.148Z,43.65
2022-11-29T20:37:15.639Z,36.20
2022-11-29T20:42:44.365Z,45.88
2022-11-29T20:47:54.273Z,45.78
2022-11-29T20:53:13.143Z,43.38
2022-11-29T20:58:15.391Z,47.35
2022-11-29T21:03:20.119Z,50.20
2022-11-29T21:08:24.823Z,49.28
2022-11-29T21:13:27.298Z,58.92
2022-11-29T21:18:32.357Z,52.90
2022-11-29T21:23:51.936Z,51.03
2022-11-29T21:29:04.577Z,51.40
2022-11-29T21:34:08.737Z,37.85
2022-11-29T21:39:14.751Z,38.70
2022-11-29T21:44:16.724Z,36.75
2022-11-29T21:49:19.996Z,19.90
2022-11-29T21:54:21.905Z,24.33
2022-11-29T21:59:27.969Z,34.05
2022-11-29T22:04:31.262Z,31.52
2022-11-29T22:09:33.249Z,47.47
2022-11-29T22:14:35.191Z,44.30
2022-11-29T22:19:39.412Z,35.05
2022-11-29T22:24:41.391Z,41.28
2022-11-29T22:29:43.435Z,38.97
2022-11-29T22:34:46.984Z,51.00
2022-11-29T22:39:49.376Z,54.13
2022-11-29T22:44:51.778Z,42.58
2022-11-29T22:49:55.057Z,42.85
2022-11-29T22:55:02.902Z,45.80
2022-11-29T23:00:08.000Z,50.53
2022-11-29T23:05:11.283Z,42.40
2022-11-29T23:10:13.205Z,45.70
2022-11-29T23:15:15.335Z,53.67
2022-11-29T23:20:18.607Z,39.17
2022-11-29T23:25:20.503Z,35.22
2022-11-29T23:30:22.449Z,42.97
2022-11-29T23:35:25.768Z,36.05
2022-11-29T23:40:27.784Z,37.63
2022-11-29T23:45:29.736Z,35.63
2022-11-29T23:50:33.227Z,42.45
2022-11-29T23:55:35.165Z,43.72
